Minneapolis, Minnesota
Traffic Map
Current Weather Conditions
Minneapolis, Minnesota
Overcast
Overcast

Feels Like: 1°
Wind Chill: Ceiling: 1200
Heat Index: Visibility: 10mi
Dew Point: Wind: 8mph
Humidity: 82% Direction: 310° (NW)
Pressure: 29.71in Gusts: 0mph
Raw Report DataKMSP 221953Z 31007KT 10SM OVC012 04/01 A2971 RMK AO2 SLP068 T00390011
Traffic Incident Summary
Active as of:
Severity:
Category:
InformationThere was an issue retrieving the traffic information for this location. Please try a different location or try again shortly.
Advertisements
Track Severe Weather on mobile